createdAt,value
2023-04-26T00:00:09.425Z,60135.56
2023-04-26T00:02:38.474Z,60119.78
2023-04-26T00:05:09.140Z,60119.41
2023-04-26T00:07:39.442Z,60115.31
2023-04-26T00:10:08.847Z,60109.53
2023-04-26T00:12:37.841Z,60115.31
2023-04-26T00:15:07.504Z,60102.63
2023-04-26T00:17:36.064Z,60100.19
2023-04-26T00:20:07.091Z,60093.28
2023-04-26T00:22:35.476Z,60095.47
2023-04-26T00:25:05.643Z,60097.63
2023-04-26T00:27:33.957Z,60100.72
2023-04-26T00:30:02.399Z,60098.56
2023-04-26T00:32:31.891Z,60084.09
2023-04-26T00:35:00.244Z,60085.56
2023-04-26T00:37:28.693Z,60079.09
2023-04-26T00:39:57.437Z,60085.44
2023-04-26T00:42:28.285Z,60076.38
2023-04-26T00:44:57.646Z,60071.50
2023-04-26T00:47:27.219Z,60067.88
2023-04-26T00:49:55.602Z,60060.47
2023-04-26T00:52:25.061Z,60073.13
2023-04-26T00:54:56.375Z,60067.72
2023-04-26T00:57:24.833Z,60058.53
2023-04-26T00:59:54.528Z,60057.47
2023-04-26T01:02:24.134Z,60059.09
2023-04-26T01:04:52.674Z,60050.44
2023-04-26T01:07:21.598Z,60053.69
2023-04-26T01:09:50.741Z,60047.72
2023-04-26T01:12:19.241Z,60040.31
2023-04-26T01:14:48.306Z,60038.00
2023-04-26T01:17:18.154Z,60042.00
2023-04-26T01:19:49.671Z,60040.00
2023-04-26T01:22:18.056Z,60049.75
2023-04-26T01:24:51.219Z,60040.72
2023-04-26T01:27:19.569Z,60042.47
2023-04-26T01:29:47.900Z,60034.22
2023-04-26T01:32:16.266Z,60040.72
2023-04-26T01:34:44.557Z,60035.84
2023-04-26T01:37:12.891Z,60035.31
2023-04-26T01:39:41.301Z,60034.75
2023-04-26T01:42:11.001Z,60033.28
2023-04-26T01:44:39.490Z,60021.41
2023-04-26T01:47:07.840Z,60027.19
2023-04-26T01:49:36.256Z,60025.56
2023-04-26T01:52:04.653Z,60021.25
2023-04-26T01:54:33.336Z,60018.53
2023-04-26T01:57:02.558Z,60018.53
2023-04-26T01:59:32.389Z,60019.09
2023-04-26T02:02:00.926Z,60004.50
2023-04-26T02:04:29.932Z,60001.81
2023-04-26T02:06:58.274Z,60007.22
2023-04-26T02:09:26.787Z,59991.31
2023-04-26T02:11:55.087Z,59989.38
2023-04-26T02:14:23.433Z,59997.09
2023-04-26T02:16:53.094Z,60000.03
2023-04-26T02:19:21.438Z,59989.91
2023-04-26T02:21:57.250Z,59994.22
2023-04-26T02:24:26.113Z,59988.44
2023-04-26T02:26:55.145Z,59989.91
2023-04-26T02:29:36.332Z,59985.03
2023-04-26T02:32:13.157Z,59987.75
2023-04-26T02:34:41.677Z,59983.03
2023-04-26T02:37:10.049Z,59973.31
2023-04-26T02:39:38.380Z,59980.34
2023-04-26T02:42:10.600Z,59983.13
2023-04-26T02:44:40.005Z,59972.09
2023-04-26T02:47:08.543Z,59980.97
2023-04-26T02:49:38.330Z,59977.50
2023-04-26T02:52:06.741Z,59967.22
2023-04-26T02:54:35.063Z,59963.44
2023-04-26T02:57:03.744Z,59966.84
2023-04-26T02:59:32.501Z,59964.53
2023-04-26T03:02:00.947Z,59959.44
2023-04-26T03:04:30.182Z,59964.38
2023-04-26T03:06:59.928Z,59967.59
2023-04-26T03:09:28.207Z,59966.13
2023-04-26T03:11:56.668Z,59961.59
2023-04-26T03:14:25.011Z,59966.13
2023-04-26T03:16:53.623Z,59961.84
2023-04-26T03:19:22.263Z,59952.41
2023-04-26T03:21:50.578Z,59952.09
2023-04-26T03:24:20.384Z,59956.81
2023-04-26T03:26:48.872Z,59940.91
2023-04-26T03:29:18.008Z,59942.38
2023-04-26T03:31:46.484Z,59953.28
2023-04-26T03:34:14.824Z,59937.28
2023-04-26T03:36:43.130Z,59941.84
2023-04-26T03:39:11.520Z,59939.16
2023-04-26T03:41:41.235Z,59934.81
2023-04-26T03:44:09.704Z,59931.59
2023-04-26T03:46:38.012Z,59936.31
2023-04-26T03:49:06.386Z,59929.44
2023-04-26T03:51:34.682Z,59928.34
2023-04-26T03:54:03.781Z,59930.25
2023-04-26T03:56:35.009Z,59929.75
2023-04-26T03:59:04.915Z,59934.28
2023-04-26T04:01:33.249Z,59927.81
2023-04-26T04:04:02.007Z,59931.28
2023-04-26T04:06:30.893Z,59926.34
2023-04-26T04:08:59.198Z,59914.06
2023-04-26T04:11:27.553Z,59931.06
2023-04-26T04:13:56.064Z,59925.09
2023-04-26T04:16:26.136Z,59930.50
2023-04-26T04:18:54.710Z,59927.25
2023-04-26T04:21:23.346Z,59928.88
2023-04-26T04:23:51.631Z,59925.66
2023-04-26T04:26:20.994Z,59922.81
2023-04-26T04:28:49.371Z,59921.84
2023-04-26T04:31:17.847Z,59937.53
2023-04-26T04:33:47.602Z,59929.44
2023-04-26T04:36:17.787Z,59922.41
2023-04-26T04:38:46.251Z,59931.72
2023-04-26T04:41:14.554Z,59942.94
2023-04-26T04:43:42.857Z,59940.75
2023-04-26T04:46:12.693Z,59942.94
2023-04-26T04:48:41.653Z,59939.38
2023-04-26T04:51:12.013Z,59945.09
2023-04-26T04:53:40.525Z,59938.22
2023-04-26T04:56:09.389Z,59943.84
2023-04-26T04:58:37.994Z,59943.47
2023-04-26T05:01:07.506Z,59942.38
2023-04-26T05:03:36.700Z,59942.00
2023-04-26T05:06:06.245Z,59953.19
2023-04-26T05:08:36.399Z,59957.50
2023-04-26T05:11:04.807Z,59956.28
2023-04-26T05:13:33.173Z,59959.28
2023-04-26T05:16:01.658Z,59948.09
2023-04-26T05:18:29.985Z,59962.91
2023-04-26T05:20:58.802Z,59967.59
2023-04-26T05:23:27.109Z,59966.69
2023-04-26T05:25:56.781Z,59965.22
2023-04-26T05:28:25.114Z,59974.78
2023-04-26T05:30:53.454Z,59975.47
2023-04-26T05:33:21.962Z,59982.34
2023-04-26T05:35:50.404Z,59987.22
2023-04-26T05:38:18.714Z,59983.41
2023-04-26T05:40:48.253Z,59994.78
2023-04-26T05:43:18.271Z,59991.69
2023-04-26T05:45:52.214Z,59998.56
2023-04-26T05:48:21.782Z,60003.41
2023-04-26T05:50:50.577Z,59998.47
2023-04-26T05:53:19.695Z,60013.13
2023-04-26T05:55:48.358Z,60014.75
2023-04-26T05:58:18.129Z,60027.34
2023-04-26T06:00:46.478Z,60031.91
2023-04-26T06:03:15.186Z,60029.50
2023-04-26T06:05:43.830Z,60040.72
2023-04-26T06:08:12.261Z,60025.88
2023-04-26T06:10:40.667Z,60041.25
2023-04-26T06:13:09.066Z,60052.22
2023-04-26T06:15:38.736Z,60068.81
2023-04-26T06:18:07.267Z,60080.00
2023-04-26T06:20:36.136Z,60073.13
2023-04-26T06:23:04.855Z,60084.72
2023-04-26T06:25:33.970Z,60084.66
2023-04-26T06:28:02.945Z,60085.03
2023-04-26T06:30:31.348Z,60089.91
2023-04-26T06:33:01.193Z,60097.63
2023-04-26T06:35:29.731Z,60106.44
2023-04-26T06:37:58.226Z,60117.63
2023-04-26T06:40:26.537Z,60130.09
2023-04-26T06:42:55.166Z,60129.69
2023-04-26T06:45:23.534Z,60131.56
2023-04-26T06:47:52.911Z,60143.47
2023-04-26T06:50:22.822Z,60138.03
2023-04-26T06:52:51.458Z,60135.66
2023-04-26T06:55:20.072Z,60152.09
2023-04-26T06:57:48.398Z,60155.88
2023-04-26T07:00:17.958Z,60162.94
2023-04-26T07:02:46.895Z,60161.06
2023-04-26T07:05:16.032Z,60165.25
2023-04-26T07:07:45.990Z,60164.72
2023-04-26T07:10:14.882Z,60169.41
2023-04-26T07:12:43.389Z,60173.75
2023-04-26T07:15:12.461Z,60178.75
2023-04-26T07:17:41.019Z,60175.13
2023-04-26T07:20:10.604Z,60194.84
2023-04-26T07:22:39.695Z,60203.28
2023-04-26T07:25:09.887Z,60200.03
2023-04-26T07:27:38.479Z,60196.47
2023-04-26T07:30:09.131Z,60208.38
2023-04-26T07:32:37.597Z,60211.66
2023-04-26T07:35:08.551Z,60212.31
2023-04-26T07:37:36.886Z,60222.06
2023-04-26T07:40:08.314Z,60234.00
2023-04-26T07:42:37.983Z,60241.44
2023-04-26T07:45:07.468Z,60252.56
2023-04-26T07:47:35.858Z,60269.22
2023-04-26T07:50:04.399Z,60273.94
2023-04-26T07:52:32.680Z,60267.19
2023-04-26T07:55:01.099Z,60260.41
2023-04-26T07:57:29.514Z,60276.94
2023-04-26T07:59:59.509Z,60286.69
2023-04-26T08:02:37.231Z,60284.94
2023-04-26T08:05:13.223Z,60297.63
2023-04-26T08:07:41.900Z,60307.00
2023-04-26T08:10:11.521Z,60302.25
2023-04-26T08:12:40.367Z,60298.06
2023-04-26T08:15:11.634Z,60302.81
2023-04-26T08:17:40.092Z,60308.38
2023-04-26T08:20:10.506Z,60298.47
2023-04-26T08:22:38.913Z,60297.78
2023-04-26T08:25:07.764Z,60316.75
2023-04-26T08:27:36.841Z,60314.59
2023-04-26T08:30:05.882Z,60315.13
2023-04-26T08:32:35.658Z,60308.75
2023-04-26T08:35:04.177Z,60337.34
2023-04-26T08:37:32.507Z,60337.50
2023-04-26T08:40:00.834Z,60335.72
2023-04-26T08:42:30.044Z,60324.63
2023-04-26T08:45:02.021Z,60304.28
2023-04-26T08:47:36.486Z,60291.56
2023-04-26T08:50:08.170Z,60260.00
2023-04-26T08:52:36.764Z,60245.00
2023-04-26T08:55:08.342Z,60254.19
2023-04-26T08:57:37.394Z,60259.31
2023-04-26T09:00:09.959Z,60268.66
2023-04-26T09:02:38.945Z,60293.59
2023-04-26T09:05:10.622Z,60331.94
2023-04-26T09:07:43.420Z,60326.81
2023-04-26T09:10:13.168Z,60329.38
2023-04-26T09:12:41.677Z,60335.34
2023-04-26T09:15:11.478Z,60341.13
2023-04-26T09:17:41.854Z,60341.97
2023-04-26T09:20:22.959Z,60358.09
2023-04-26T09:22:53.487Z,60360.81
2023-04-26T09:25:29.625Z,60360.41
2023-04-26T09:27:58.717Z,60369.63
2023-04-26T09:30:29.377Z,60377.22
2023-04-26T09:32:59.682Z,60372.03
2023-04-26T09:35:32.325Z,60363.13
2023-04-26T09:38:09.606Z,60370.97
2023-04-26T09:40:42.425Z,60375.16
2023-04-26T09:43:12.617Z,60381.81
2023-04-26T09:45:50.610Z,60399.47
2023-04-26T09:48:22.320Z,60430.22
2023-04-26T09:50:54.293Z,60428.75
2023-04-26T09:53:30.880Z,60432.78
2023-04-26T09:56:08.464Z,60424.41
2023-04-26T09:58:38.503Z,60421.38
2023-04-26T10:01:08.672Z,60442.94
2023-04-26T10:03:38.542Z,60441.75
2023-04-26T10:06:09.325Z,60450.56
2023-04-26T10:08:38.049Z,60440.69
2023-04-26T10:11:07.478Z,60430.91
2023-04-26T10:13:36.558Z,60449.06
2023-04-26T10:16:06.800Z,60444.31
2023-04-26T10:18:35.647Z,60459.53
2023-04-26T10:21:12.262Z,60455.03
2023-04-26T10:23:42.272Z,60471.06
2023-04-26T10:26:51.664Z,60462.66
2023-04-26T10:29:20.628Z,60434.56
2023-04-26T10:32:10.595Z,60425.75
2023-04-26T10:34:39.236Z,60418.28
2023-04-26T10:37:10.324Z,60411.38
2023-04-26T10:39:39.524Z,60416.66
2023-04-26T10:42:24.272Z,60407.44
2023-04-26T10:44:55.374Z,60407.28
2023-04-26T10:47:25.802Z,60399.84
2023-04-26T10:49:54.329Z,60398.38
2023-04-26T10:52:24.402Z,60408.53
2023-04-26T10:54:54.938Z,60407.03
2023-04-26T10:57:25.289Z,60410.44
2023-04-26T11:00:20.939Z,60462.78
2023-04-26T11:02:59.685Z,60473.09
2023-04-26T11:05:43.397Z,60480.16
2023-04-26T11:08:19.558Z,60454.78
2023-04-26T11:10:53.089Z,60461.41
2023-04-26T11:13:21.778Z,60451.25
2023-04-26T11:15:55.058Z,60446.09
2023-04-26T11:18:23.725Z,60436.34
2023-04-26T11:20:52.734Z,60457.50
2023-04-26T11:23:24.527Z,60459.94
2023-04-26T11:25:54.931Z,60464.94
2023-04-26T11:28:23.270Z,60465.66
2023-04-26T11:30:51.735Z,60481.63
2023-04-26T11:33:23.019Z,60504.19
2023-04-26T11:35:52.021Z,60519.81
2023-04-26T11:38:25.370Z,60515.59
2023-04-26T11:40:58.109Z,60513.16
2023-04-26T11:43:31.662Z,60508.78
2023-04-26T11:46:00.466Z,60493.19
2023-04-26T11:48:29.948Z,60482.31
2023-04-26T11:50:59.522Z,60480.69
2023-04-26T11:53:38.755Z,60468.09
2023-04-26T11:56:15.667Z,60465.09
2023-04-26T11:58:46.255Z,60475.66
2023-04-26T12:01:21.884Z,60477.44
2023-04-26T12:03:52.296Z,60467.81
2023-04-26T12:06:21.740Z,60479.19
2023-04-26T12:08:52.909Z,60502.44
2023-04-26T12:11:21.869Z,60525.22
2023-04-26T12:13:50.762Z,60551.03
2023-04-26T12:16:26.667Z,60596.53
2023-04-26T12:18:57.574Z,60663.38
2023-04-26T12:21:30.381Z,60725.66
2023-04-26T12:24:00.575Z,60730.47
2023-04-26T12:26:44.373Z,60673.59
2023-04-26T12:29:12.759Z,60638.09
2023-04-26T12:31:41.609Z,60587.31
2023-04-26T12:34:10.130Z,60576.03
2023-04-26T12:36:39.867Z,60565.56
2023-04-26T12:39:09.596Z,60528.66
2023-04-26T12:41:38.064Z,60526.47
2023-04-26T12:44:06.500Z,60528.50
2023-04-26T12:46:34.953Z,60525.38
2023-04-26T12:49:06.029Z,60523.44
2023-04-26T12:51:34.828Z,60506.91
2023-04-26T12:54:03.171Z,60533.38
2023-04-26T12:56:33.056Z,60553.63
2023-04-26T12:59:01.397Z,60606.19
2023-04-26T13:01:29.729Z,60639.47
2023-04-26T13:03:59.905Z,60682.97
2023-04-26T13:06:28.767Z,60706.78
2023-04-26T13:08:57.100Z,60722.16
2023-04-26T13:11:25.412Z,60753.69
2023-04-26T13:13:55.228Z,60761.72
2023-04-26T13:16:23.699Z,60758.34
2023-04-26T13:18:52.489Z,60777.50
2023-04-26T13:21:20.940Z,60739.56
2023-04-26T13:23:49.428Z,60718.34
2023-04-26T13:26:18.317Z,60703.34
2023-04-26T13:28:47.405Z,60658.63
2023-04-26T13:31:18.551Z,60696.44
2023-04-26T13:33:49.200Z,60673.72
2023-04-26T13:36:17.608Z,60659.88
2023-04-26T13:38:46.393Z,60644.91
2023-04-26T13:41:14.724Z,60645.69
2023-04-26T13:43:43.111Z,60637.53
2023-04-26T13:46:11.503Z,60610.13
2023-04-26T13:48:41.191Z,60613.38
2023-04-26T13:51:09.575Z,60617.34
2023-04-26T13:53:37.901Z,60606.19
2023-04-26T13:56:07.013Z,60587.00
2023-04-26T13:58:35.359Z,60579.28
2023-04-26T14:01:04.335Z,60584.44
2023-04-26T14:03:33.397Z,60588.78
2023-04-26T14:06:03.900Z,60634.31
2023-04-26T14:08:32.506Z,60622.34
2023-04-26T14:11:00.781Z,60604.13
2023-04-26T14:13:29.167Z,60594.59
2023-04-26T14:15:57.681Z,60582.94
2023-04-26T14:18:26.086Z,60573.56
2023-04-26T14:20:54.368Z,60573.16
2023-04-26T14:23:23.983Z,60572.47
2023-04-26T14:25:53.299Z,60587.44
2023-04-26T14:28:23.449Z,60654.16
2023-04-26T14:30:51.708Z,60711.81
2023-04-26T14:33:19.946Z,60765.00
2023-04-26T14:35:48.278Z,60747.97
2023-04-26T14:38:16.891Z,60694.16
2023-04-26T14:40:46.869Z,60686.22
2023-04-26T14:43:15.152Z,60675.34
2023-04-26T14:45:45.038Z,60657.94
2023-04-26T14:48:13.636Z,60667.44
2023-04-26T14:50:42.259Z,60657.94
2023-04-26T14:53:11.055Z,60642.97
2023-04-26T14:55:39.482Z,60638.78
2023-04-26T14:58:09.144Z,60617.84
2023-04-26T15:00:38.898Z,60600.34
2023-04-26T15:03:07.525Z,60601.69
2023-04-26T15:05:35.978Z,60598.97
2023-04-26T15:08:04.647Z,60569.38
2023-04-26T15:10:33.048Z,60563.78
2023-04-26T15:13:01.322Z,60576.13
2023-04-26T15:15:31.187Z,60580.78
2023-04-26T15:17:59.538Z,60599.25
2023-04-26T15:20:27.815Z,60648.19
2023-04-26T15:22:56.098Z,60689.50
2023-04-26T15:25:24.409Z,60717.78
2023-04-26T15:27:52.649Z,60727.97
2023-04-26T15:30:21.275Z,60699.31
2023-04-26T15:32:51.294Z,60689.50
2023-04-26T15:35:19.615Z,60704.75
2023-04-26T15:37:47.982Z,60749.75
2023-04-26T15:40:16.638Z,60780.91
2023-04-26T15:42:44.908Z,60770.81
2023-04-26T15:45:13.214Z,60736.84
2023-04-26T15:47:41.521Z,60722.44
2023-04-26T15:50:11.863Z,60704.19
2023-04-26T15:52:40.700Z,60682.97
2023-04-26T15:55:09.392Z,60672.50
2023-04-26T15:57:38.021Z,60639.47
2023-04-26T16:00:08.600Z,60634.03
2023-04-26T16:02:37.419Z,60640.16
2023-04-26T16:05:07.057Z,60627.91
2023-04-26T16:07:38.709Z,60622.38
2023-04-26T16:10:09.104Z,60622.88
2023-04-26T16:12:39.579Z,60611.19
2023-04-26T16:15:09.399Z,60608.34
2023-04-26T16:17:38.482Z,60591.66
2023-04-26T16:20:08.259Z,60589.72
2023-04-26T16:22:37.940Z,60586.75
2023-04-26T16:25:08.715Z,60572.22
2023-04-26T16:27:37.025Z,60572.91
2023-04-26T16:30:06.034Z,60574.25
2023-04-26T16:32:34.386Z,60574.25
2023-04-26T16:35:02.834Z,60562.69
2023-04-26T16:37:31.638Z,60561.31
2023-04-26T16:40:01.611Z,60563.94
2023-04-26T16:42:31.077Z,60571.78
2023-04-26T16:44:59.381Z,60572.09
2023-04-26T16:47:27.644Z,60585.38
2023-04-26T16:49:56.010Z,60585.66
2023-04-26T16:52:24.362Z,60583.34
2023-04-26T16:54:52.633Z,60589.75
2023-04-26T16:57:22.321Z,60591.09
2023-04-26T16:59:51.424Z,60578.34
2023-04-26T17:02:19.794Z,60583.88
2023-04-26T17:04:49.117Z,60571.84
2023-04-26T17:07:17.742Z,60592.44
2023-04-26T17:09:45.996Z,60588.22
2023-04-26T17:12:14.277Z,60579.41
2023-04-26T17:14:43.942Z,60582.94
2023-04-26T17:17:12.606Z,60590.94
2023-04-26T17:19:41.184Z,60587.31
2023-04-26T17:22:09.580Z,60597.47
2023-04-26T17:24:37.984Z,60588.53
2023-04-26T17:27:06.731Z,60598.44
2023-04-26T17:29:35.021Z,60582.94
2023-04-26T17:32:05.346Z,60590.28
2023-04-26T17:34:33.722Z,60574.50
2023-04-26T17:37:01.971Z,60562.03
2023-04-26T17:39:30.232Z,60570.72
2023-04-26T17:41:58.594Z,60560.53
2023-04-26T17:44:26.834Z,60555.78
2023-04-26T17:46:55.102Z,60545.47
2023-04-26T17:49:25.729Z,60541.66
2023-04-26T17:51:54.099Z,60536.66
2023-04-26T17:54:22.348Z,60539.22
2023-04-26T17:56:50.896Z,60538.94
2023-04-26T17:59:19.143Z,60526.06
2023-04-26T18:01:47.550Z,60530.50
2023-04-26T18:04:16.207Z,60529.72
2023-04-26T18:06:46.302Z,60520.88
2023-04-26T18:09:14.561Z,60520.88
2023-04-26T18:11:47.557Z,60512.50
2023-04-26T18:14:16.153Z,60510.88
2023-04-26T18:16:44.648Z,60501.88
2023-04-26T18:19:13.037Z,60494.25
2023-04-26T18:21:41.337Z,60500.09
2023-04-26T18:24:11.324Z,60493.19
2023-04-26T18:26:41.137Z,60498.59
2023-04-26T18:29:09.498Z,60487.91
2023-04-26T18:31:37.849Z,60480.31
2023-04-26T18:34:06.774Z,60486.53
2023-04-26T18:36:35.908Z,60474.31
2023-04-26T18:39:04.433Z,60468.22
2023-04-26T18:41:34.146Z,60470.69
2023-04-26T18:44:02.699Z,60473.25
2023-04-26T18:46:32.116Z,60465.25
2023-04-26T18:49:01.208Z,60470.38
2023-04-26T18:51:29.580Z,60455.72
2023-04-26T18:53:57.964Z,60450.69
2023-04-26T18:56:26.297Z,60450.44
2023-04-26T18:58:56.238Z,60464.41
2023-04-26T19:01:24.775Z,60458.28
2023-04-26T19:03:53.566Z,60451.94
2023-04-26T19:06:22.179Z,60447.75
2023-04-26T19:08:51.537Z,60460.06
2023-04-26T19:11:19.770Z,60465.66
2023-04-26T19:13:48.058Z,60466.03
2023-04-26T19:16:17.887Z,60447.09
2023-04-26T19:18:47.209Z,60462.25
2023-04-26T19:21:15.646Z,60455.47
2023-04-26T19:23:46.107Z,60451.53
2023-04-26T19:26:15.027Z,60440.16
2023-04-26T19:28:43.289Z,60443.09
2023-04-26T19:31:11.638Z,60440.00
2023-04-26T19:33:41.403Z,60428.75
2023-04-26T19:36:10.174Z,60436.72
2023-04-26T19:38:41.473Z,60431.72
2023-04-26T19:41:09.782Z,60417.22
2023-04-26T19:43:38.059Z,60404.63
2023-04-26T19:46:12.533Z,60404.88
2023-04-26T19:48:42.451Z,60404.59
2023-04-26T19:51:16.746Z,60405.25
2023-04-26T19:53:45.216Z,60404.59
2023-04-26T19:56:13.616Z,60389.69
2023-04-26T19:58:42.858Z,60393.88
2023-04-26T20:01:11.232Z,60385.63
2023-04-26T20:03:41.741Z,60387.22
2023-04-26T20:06:13.842Z,60379.91
2023-04-26T20:08:42.212Z,60381.16
2023-04-26T20:11:15.219Z,60403.09
2023-04-26T20:13:43.684Z,60399.84
2023-04-26T20:16:12.108Z,60405.41
2023-04-26T20:18:40.629Z,60398.91
2023-04-26T20:21:08.927Z,60385.34
2023-04-26T20:23:38.654Z,60390.09
2023-04-26T20:26:06.995Z,60397.00
2023-04-26T20:28:35.926Z,60393.88
2023-04-26T20:31:04.347Z,60387.91
2023-04-26T20:33:32.665Z,60389.53
2023-04-26T20:36:00.990Z,60379.63
2023-04-26T20:38:29.261Z,60368.00
2023-04-26T20:40:59.699Z,60367.69
2023-04-26T20:43:28.469Z,60360.41
2023-04-26T20:45:57.470Z,60372.19
2023-04-26T20:48:26.141Z,60367.69
2023-04-26T20:50:56.958Z,60357.69
2023-04-26T20:53:25.628Z,60359.72
2023-04-26T20:55:53.936Z,60355.53
2023-04-26T20:58:24.227Z,60350.13
2023-04-26T21:00:53.854Z,60365.00
2023-04-26T21:03:22.648Z,60366.75
2023-04-26T21:05:51.187Z,60364.47
2023-04-26T21:08:19.601Z,60357.94
2023-04-26T21:10:49.251Z,60358.25
2023-04-26T21:13:17.694Z,60350.25
2023-04-26T21:15:47.434Z,60354.69
2023-04-26T21:18:15.802Z,60358.25
2023-04-26T21:20:44.201Z,60365.53
2023-04-26T21:23:12.507Z,60357.69
2023-04-26T21:25:45.720Z,60363.38
2023-04-26T21:28:14.114Z,60355.38
2023-04-26T21:30:42.489Z,60352.13
2023-04-26T21:33:12.600Z,60350.50
2023-04-26T21:35:40.928Z,60350.34
2023-04-26T21:38:09.433Z,60350.34
2023-04-26T21:40:37.716Z,60350.13
2023-04-26T21:43:06.302Z,60356.84
2023-04-26T21:45:35.238Z,60354.13
2023-04-26T21:48:04.467Z,60359.19
2023-04-26T21:50:34.235Z,60355.00
2023-04-26T21:53:03.041Z,60352.81
2023-04-26T21:55:31.449Z,60352.28
2023-04-26T21:57:59.726Z,60356.47
2023-04-26T22:00:28.295Z,60359.56
2023-04-26T22:02:56.884Z,60348.50
2023-04-26T22:05:25.911Z,60353.75
2023-04-26T22:07:56.004Z,60354.69
2023-04-26T22:10:24.261Z,60350.13
2023-04-26T22:12:52.886Z,60354.44
2023-04-26T22:15:21.347Z,60364.06
2023-04-26T22:17:49.638Z,60369.88
2023-04-26T22:20:18.070Z,60359.34
2023-04-26T22:22:46.561Z,60353.91
2023-04-26T22:25:16.164Z,60363.91
2023-04-26T22:27:44.394Z,60355.13
2023-04-26T22:30:24.867Z,60363.53
2023-04-26T22:32:57.254Z,60362.28
2023-04-26T22:35:26.328Z,60354.28
2023-04-26T22:37:54.910Z,60350.66
2023-04-26T22:40:24.533Z,60349.00
2023-04-26T22:42:53.856Z,60348.88
2023-04-26T22:45:22.734Z,60334.69
2023-04-26T22:47:51.309Z,60349.56
2023-04-26T22:50:19.599Z,60347.78
2023-04-26T22:52:47.926Z,60341.28
2023-04-26T22:55:16.310Z,60342.75
2023-04-26T22:57:46.226Z,60334.38
2023-04-26T23:00:15.895Z,60342.75
2023-04-26T23:02:44.609Z,60346.72
2023-04-26T23:05:13.145Z,60351.97
2023-04-26T23:07:41.704Z,60347.25
2023-04-26T23:10:10.479Z,60340.75
2023-04-26T23:12:38.891Z,60347.94
2023-04-26T23:15:09.780Z,60344.84
2023-04-26T23:17:38.799Z,60350.75
2023-04-26T23:20:12.178Z,60336.94
2023-04-26T23:22:41.278Z,60335.47
2023-04-26T23:25:11.262Z,60344.00
2023-04-26T23:27:39.922Z,60338.72
2023-04-26T23:30:10.735Z,60326.81
2023-04-26T23:32:39.142Z,60324.63
2023-04-26T23:35:08.133Z,60331.38
2023-04-26T23:37:36.381Z,60337.66
2023-04-26T23:40:06.844Z,60331.16
2023-04-26T23:42:35.088Z,60314.88
2023-04-26T23:45:03.606Z,60318.53
2023-04-26T23:47:33.199Z,60326.66
2023-04-26T23:50:01.480Z,60324.34
2023-04-26T23:52:29.712Z,60324.63
2023-04-26T23:54:57.953Z,60322.31
2023-04-26T23:57:26.513Z,60313.50
2023-04-26T23:59:54.758Z,60310.25
